sensor_id;sensor_type;location;lat;lon;timestamp;pressure;altitude;pressure_sealevel;temperature;humidity
48095;BME280;33874;52.070;-0.516;2023-03-08T00:02:23;99446.41;;;-0.86;70.37
48095;BME280;33874;52.070;-0.516;2023-03-08T00:04:54;99448.46;;;-0.89;70.24
48095;BME280;33874;52.070;-0.516;2023-03-08T00:07:22;99455.10;;;-0.90;70.41
48095;BME280;33874;52.070;-0.516;2023-03-08T00:09:50;99452.84;;;-0.93;70.57
48095;BME280;33874;52.070;-0.516;2023-03-08T00:12:19;99451.84;;;-0.93;70.39
48095;BME280;33874;52.070;-0.516;2023-03-08T00:14:49;99455.65;;;-0.94;70.38
48095;BME280;33874;52.070;-0.516;2023-03-08T00:17:17;99452.98;;;-0.95;70.62
48095;BME280;33874;52.070;-0.516;2023-03-08T00:19:45;99449.68;;;-0.95;70.55
48095;BME280;33874;52.070;-0.516;2023-03-08T00:22:13;99443.34;;;-0.96;70.57
48095;BME280;33874;52.070;-0.516;2023-03-08T00:24:41;99442.64;;;-0.95;70.72
48095;BME280;33874;52.070;-0.516;2023-03-08T00:27:09;99436.04;;;-0.94;71.03
48095;BME280;33874;52.070;-0.516;2023-03-08T00:29:37;99436.86;;;-0.94;70.66
48095;BME280;33874;52.070;-0.516;2023-03-08T00:32:05;99436.11;;;-0.93;70.97
48095;BME280;33874;52.070;-0.516;2023-03-08T00:34:33;99428.25;;;-0.91;70.76
48095;BME280;33874;52.070;-0.516;2023-03-08T00:37:01;99421.61;;;-0.90;71.07
48095;BME280;33874;52.070;-0.516;2023-03-08T00:39:28;99421.02;;;-0.89;70.93
48095;BME280;33874;52.070;-0.516;2023-03-08T00:41:56;99418.79;;;-0.86;71.12
48095;BME280;33874;52.070;-0.516;2023-03-08T00:44:24;99412.16;;;-0.82;71.33
48095;BME280;33874;52.070;-0.516;2023-03-08T00:46:52;99407.78;;;-0.78;71.22
48095;BME280;33874;52.070;-0.516;2023-03-08T00:49:20;99400.95;;;-0.73;71.57
48095;BME280;33874;52.070;-0.516;2023-03-08T00:51:49;99400.20;;;-0.66;71.56
48095;BME280;33874;52.070;-0.516;2023-03-08T00:54:17;99394.73;;;-0.62;71.79
48095;BME280;33874;52.070;-0.516;2023-03-08T00:56:44;99390.30;;;-0.56;71.58
48095;BME280;33874;52.070;-0.516;2023-03-08T00:59:12;99386.14;;;-0.54;71.69
48095;BME280;33874;52.070;-0.516;2023-03-08T01:01:40;99382.41;;;-0.52;71.49
48095;BME280;33874;52.070;-0.516;2023-03-08T01:04:08;99382.00;;;-0.51;71.73
48095;BME280;33874;52.070;-0.516;2023-03-08T01:06:36;99378.79;;;-0.49;71.86
48095;BME280;33874;52.070;-0.516;2023-03-08T01:09:04;99379.73;;;-0.48;71.92
48095;BME280;33874;52.070;-0.516;2023-03-08T01:11:32;99377.98;;;-0.47;71.64
48095;BME280;33874;52.070;-0.516;2023-03-08T01:14:02;99374.35;;;-0.47;71.49
48095;BME280;33874;52.070;-0.516;2023-03-08T01:16:31;99369.06;;;-0.45;71.72
48095;BME280;33874;52.070;-0.516;2023-03-08T01:19:00;99364.24;;;-0.42;71.87
48095;BME280;33874;52.070;-0.516;2023-03-08T01:21:28;99363.52;;;-0.42;71.62
48095;BME280;33874;52.070;-0.516;2023-03-08T01:23:57;99359.37;;;-0.42;71.59
48095;BME280;33874;52.070;-0.516;2023-03-08T01:26:25;99354.81;;;-0.41;71.93
48095;BME280;33874;52.070;-0.516;2023-03-08T01:28:54;99356.48;;;-0.40;71.85
48095;BME280;33874;52.070;-0.516;2023-03-08T01:31:26;99353.20;;;-0.40;71.88
48095;BME280;33874;52.070;-0.516;2023-03-08T01:33:54;99350.89;;;-0.41;72.08
48095;BME280;33874;52.070;-0.516;2023-03-08T01:36:22;99343.89;;;-0.43;72.28
48095;BME280;33874;52.070;-0.516;2023-03-08T01:38:51;99334.23;;;-0.43;72.22
48095;BME280;33874;52.070;-0.516;2023-03-08T01:41:22;99324.48;;;-0.41;72.22
48095;BME280;33874;52.070;-0.516;2023-03-08T01:43:50;99311.86;;;-0.41;72.13
48095;BME280;33874;52.070;-0.516;2023-03-08T01:46:22;99301.84;;;-0.41;72.24
48095;BME280;33874;52.070;-0.516;2023-03-08T01:51:23;99293.27;;;-0.39;72.68
48095;BME280;33874;52.070;-0.516;2023-03-08T01:53:53;99293.14;;;-0.37;72.80
48095;BME280;33874;52.070;-0.516;2023-03-08T01:56:22;99293.74;;;-0.36;73.04
48095;BME280;33874;52.070;-0.516;2023-03-08T01:58:51;99290.65;;;-0.33;72.87
48095;BME280;33874;52.070;-0.516;2023-03-08T02:01:19;99285.40;;;-0.32;72.83
48095;BME280;33874;52.070;-0.516;2023-03-08T02:03:47;99279.52;;;-0.32;72.84
48095;BME280;33874;52.070;-0.516;2023-03-08T02:06:15;99272.80;;;-0.32;72.68
48095;BME280;33874;52.070;-0.516;2023-03-08T02:08:43;99266.89;;;-0.32;73.13
48095;BME280;33874;52.070;-0.516;2023-03-08T02:11:11;99258.53;;;-0.31;72.94
48095;BME280;33874;52.070;-0.516;2023-03-08T02:13:40;99254.71;;;-0.31;73.09
48095;BME280;33874;52.070;-0.516;2023-03-08T02:16:10;99248.23;;;-0.31;73.33
48095;BME280;33874;52.070;-0.516;2023-03-08T02:18:50;99246.39;;;-0.33;73.13
48095;BME280;33874;52.070;-0.516;2023-03-08T02:21:18;99239.92;;;-0.34;73.10
48095;BME280;33874;52.070;-0.516;2023-03-08T02:23:45;99237.62;;;-0.35;73.35
48095;BME280;33874;52.070;-0.516;2023-03-08T02:26:13;99238.86;;;-0.36;73.22
48095;BME280;33874;52.070;-0.516;2023-03-08T02:28:41;99239.16;;;-0.38;73.44
48095;BME280;33874;52.070;-0.516;2023-03-08T02:31:12;99231.51;;;-0.40;73.21
48095;BME280;33874;52.070;-0.516;2023-03-08T02:33:40;99224.20;;;-0.41;73.55
48095;BME280;33874;52.070;-0.516;2023-03-08T02:36:08;99214.48;;;-0.43;73.68
48095;BME280;33874;52.070;-0.516;2023-03-08T02:38:36;99204.45;;;-0.43;73.61
48095;BME280;33874;52.070;-0.516;2023-03-08T02:41:04;99196.30;;;-0.42;73.87
48095;BME280;33874;52.070;-0.516;2023-03-08T02:43:32;99181.70;;;-0.41;73.88
48095;BME280;33874;52.070;-0.516;2023-03-08T02:46:00;99175.45;;;-0.38;73.92
48095;BME280;33874;52.070;-0.516;2023-03-08T02:48:28;99176.92;;;-0.34;74.12
48095;BME280;33874;52.070;-0.516;2023-03-08T02:50:55;99181.17;;;-0.31;74.34
48095;BME280;33874;52.070;-0.516;2023-03-08T02:53:23;99175.70;;;-0.28;74.30
48095;BME280;33874;52.070;-0.516;2023-03-08T02:55:51;99170.30;;;-0.25;74.22
48095;BME280;33874;52.070;-0.516;2023-03-08T02:58:19;99166.14;;;-0.22;74.28
48095;BME280;33874;52.070;-0.516;2023-03-08T03:00:47;99161.40;;;-0.18;74.59
48095;BME280;33874;52.070;-0.516;2023-03-08T03:03:15;99152.77;;;-0.16;74.42
48095;BME280;33874;52.070;-0.516;2023-03-08T03:05:43;99148.52;;;-0.14;74.21
48095;BME280;33874;52.070;-0.516;2023-03-08T03:08:12;99146.73;;;-0.13;74.25
48095;BME280;33874;52.070;-0.516;2023-03-08T03:10:41;99143.45;;;-0.13;74.35
48095;BME280;33874;52.070;-0.516;2023-03-08T03:13:09;99144.74;;;-0.12;74.40
48095;BME280;33874;52.070;-0.516;2023-03-08T03:15:37;99141.59;;;-0.12;74.74
48095;BME280;33874;52.070;-0.516;2023-03-08T03:18:06;99138.40;;;-0.10;74.42
48095;BME280;33874;52.070;-0.516;2023-03-08T03:20:33;99132.82;;;-0.09;74.59
48095;BME280;33874;52.070;-0.516;2023-03-08T03:23:01;99120.15;;;-0.08;74.20
48095;BME280;33874;52.070;-0.516;2023-03-08T03:25:29;99115.05;;;-0.07;74.74
48095;BME280;33874;52.070;-0.516;2023-03-08T03:27:57;99105.26;;;-0.05;74.69
48095;BME280;33874;52.070;-0.516;2023-03-08T03:30:25;99102.08;;;-0.04;74.58
48095;BME280;33874;52.070;-0.516;2023-03-08T03:32:53;99094.83;;;-0.04;74.64
48095;BME280;33874;52.070;-0.516;2023-03-08T03:35:21;99089.45;;;-0.04;74.81
48095;BME280;33874;52.070;-0.516;2023-03-08T03:37:48;99080.63;;;-0.04;74.86
48095;BME280;33874;52.070;-0.516;2023-03-08T03:40:16;99069.45;;;-0.02;75.00
48095;BME280;33874;52.070;-0.516;2023-03-08T03:42:44;99065.70;;;0.00;74.88
48095;BME280;33874;52.070;-0.516;2023-03-08T03:45:12;99065.19;;;0.03;75.15
48095;BME280;33874;52.070;-0.516;2023-03-08T03:47:40;99063.39;;;0.06;75.36
48095;BME280;33874;52.070;-0.516;2023-03-08T03:50:08;99054.95;;;0.08;75.06
48095;BME280;33874;52.070;-0.516;2023-03-08T03:52:36;99053.77;;;0.10;75.09
48095;BME280;33874;52.070;-0.516;2023-03-08T03:55:05;99047.66;;;0.11;75.28
48095;BME280;33874;52.070;-0.516;2023-03-08T03:57:33;99044.02;;;0.12;75.07
48095;BME280;33874;52.070;-0.516;2023-03-08T04:00:01;99039.70;;;0.12;75.11
48095;BME280;33874;52.070;-0.516;2023-03-08T04:02:28;99038.34;;;0.11;75.08
48095;BME280;33874;52.070;-0.516;2023-03-08T04:04:57;99031.16;;;0.10;74.69
48095;BME280;33874;52.070;-0.516;2023-03-08T04:07:25;99029.35;;;0.09;74.96
48095;BME280;33874;52.070;-0.516;2023-03-08T04:09:52;99028.88;;;0.08;75.11
48095;BME280;33874;52.070;-0.516;2023-03-08T04:12:20;99024.39;;;0.08;75.06
48095;BME280;33874;52.070;-0.516;2023-03-08T04:14:48;99027.28;;;0.09;75.03
48095;BME280;33874;52.070;-0.516;2023-03-08T04:17:16;99025.89;;;0.09;75.24
48095;BME280;33874;52.070;-0.516;2023-03-08T04:19:44;99021.67;;;0.10;75.08
48095;BME280;33874;52.070;-0.516;2023-03-08T04:22:11;99022.66;;;0.11;75.14
48095;BME280;33874;52.070;-0.516;2023-03-08T04:24:39;99022.88;;;0.13;75.47
48095;BME280;33874;52.070;-0.516;2023-03-08T04:27:07;99027.93;;;0.14;75.30
48095;BME280;33874;52.070;-0.516;2023-03-08T04:29:35;99029.90;;;0.16;75.24
48095;BME280;33874;52.070;-0.516;2023-03-08T04:32:03;99021.30;;;0.18;75.31
48095;BME280;33874;52.070;-0.516;2023-03-08T04:34:31;99019.02;;;0.21;75.03
48095;BME280;33874;52.070;-0.516;2023-03-08T04:36:59;99014.23;;;0.22;75.26
48095;BME280;33874;52.070;-0.516;2023-03-08T04:39:27;99008.91;;;0.24;75.42
48095;BME280;33874;52.070;-0.516;2023-03-08T04:41:55;99008.73;;;0.24;75.63
48095;BME280;33874;52.070;-0.516;2023-03-08T04:44:23;99005.72;;;0.26;75.43
48095;BME280;33874;52.070;-0.516;2023-03-08T04:46:50;98996.73;;;0.26;75.36
48095;BME280;33874;52.070;-0.516;2023-03-08T04:49:19;98992.83;;;0.27;75.13
48095;BME280;33874;52.070;-0.516;2023-03-08T04:51:46;98983.37;;;0.29;75.16
48095;BME280;33874;52.070;-0.516;2023-03-08T04:54:14;98981.30;;;0.31;75.07
48095;BME280;33874;52.070;-0.516;2023-03-08T04:56:42;98978.11;;;0.33;75.25
48095;BME280;33874;52.070;-0.516;2023-03-08T04:59:10;98978.80;;;0.35;75.50
48095;BME280;33874;52.070;-0.516;2023-03-08T05:01:38;98974.17;;;0.37;75.44
48095;BME280;33874;52.070;-0.516;2023-03-08T05:04:07;98969.96;;;0.37;75.41
48095;BME280;33874;52.070;-0.516;2023-03-08T05:06:36;98972.48;;;0.38;74.84
48095;BME280;33874;52.070;-0.516;2023-03-08T05:09:04;98970.40;;;0.38;75.35
48095;BME280;33874;52.070;-0.516;2023-03-08T05:11:32;98970.67;;;0.40;75.03
48095;BME280;33874;52.070;-0.516;2023-03-08T05:14:00;98972.85;;;0.40;75.09
48095;BME280;33874;52.070;-0.516;2023-03-08T05:16:28;98972.39;;;0.42;75.02
48095;BME280;33874;52.070;-0.516;2023-03-08T05:18:56;98977.09;;;0.44;75.18
48095;BME280;33874;52.070;-0.516;2023-03-08T05:21:24;98974.38;;;0.46;75.38
48095;BME280;33874;52.070;-0.516;2023-03-08T05:23:52;98969.11;;;0.47;75.41
48095;BME280;33874;52.070;-0.516;2023-03-08T05:26:20;98963.76;;;0.50;75.62
48095;BME280;33874;52.070;-0.516;2023-03-08T05:28:48;98964.05;;;0.51;75.51
48095;BME280;33874;52.070;-0.516;2023-03-08T05:31:16;98968.08;;;0.49;75.51
48095;BME280;33874;52.070;-0.516;2023-03-08T05:33:45;98969.31;;;0.49;75.16
48095;BME280;33874;52.070;-0.516;2023-03-08T05:36:16;98970.73;;;0.49;75.49
48095;BME280;33874;52.070;-0.516;2023-03-08T05:38:44;98968.64;;;0.46;75.69
48095;BME280;33874;52.070;-0.516;2023-03-08T05:41:13;98965.02;;;0.44;75.66
48095;BME280;33874;52.070;-0.516;2023-03-08T05:43:41;98959.30;;;0.41;75.96
48095;BME280;33874;52.070;-0.516;2023-03-08T05:46:13;98946.52;;;0.39;75.93
48095;BME280;33874;52.070;-0.516;2023-03-08T05:48:41;98948.11;;;0.39;76.08
48095;BME280;33874;52.070;-0.516;2023-03-08T05:51:12;98955.07;;;0.38;76.39
48095;BME280;33874;52.070;-0.516;2023-03-08T05:53:40;98951.73;;;0.37;76.50
48095;BME280;33874;52.070;-0.516;2023-03-08T05:56:09;98944.80;;;0.37;76.35
48095;BME280;33874;52.070;-0.516;2023-03-08T05:58:38;98943.50;;;0.38;76.47
48095;BME280;33874;52.070;-0.516;2023-03-08T06:01:10;98946.03;;;0.39;76.78
48095;BME280;33874;52.070;-0.516;2023-03-08T06:03:38;98940.05;;;0.40;76.90
48095;BME280;33874;52.070;-0.516;2023-03-08T06:06:06;98936.84;;;0.42;76.80
48095;BME280;33874;52.070;-0.516;2023-03-08T06:08:34;98933.70;;;0.42;77.08
48095;BME280;33874;52.070;-0.516;2023-03-08T06:11:02;98934.67;;;0.43;77.26
48095;BME280;33874;52.070;-0.516;2023-03-08T06:13:30;98927.94;;;0.43;77.41
48095;BME280;33874;52.070;-0.516;2023-03-08T06:15:59;98926.66;;;0.44;77.51
48095;BME280;33874;52.070;-0.516;2023-03-08T06:18:27;98923.26;;;0.43;77.49
48095;BME280;33874;52.070;-0.516;2023-03-08T06:23:23;98912.00;;;0.43;77.61
48095;BME280;33874;52.070;-0.516;2023-03-08T06:25:51;98908.24;;;0.42;77.44
48095;BME280;33874;52.070;-0.516;2023-03-08T06:28:20;98911.09;;;0.41;77.91
48095;BME280;33874;52.070;-0.516;2023-03-08T06:30:48;98905.46;;;0.41;77.81
48095;BME280;33874;52.070;-0.516;2023-03-08T06:33:17;98903.16;;;0.41;78.10
48095;BME280;33874;52.070;-0.516;2023-03-08T06:38:32;98901.38;;;0.39;78.07
48095;BME280;33874;52.070;-0.516;2023-03-08T06:41:00;98905.30;;;0.41;78.35
48095;BME280;33874;52.070;-0.516;2023-03-08T06:43:28;98903.64;;;0.42;78.56
48095;BME280;33874;52.070;-0.516;2023-03-08T06:45:56;98898.89;;;0.43;78.58
48095;BME280;33874;52.070;-0.516;2023-03-08T06:48:24;98897.42;;;0.44;79.17
48095;BME280;33874;52.070;-0.516;2023-03-08T06:50:52;98897.86;;;0.45;78.52
48095;BME280;33874;52.070;-0.516;2023-03-08T06:53:20;98895.79;;;0.45;78.55
48095;BME280;33874;52.070;-0.516;2023-03-08T06:55:48;98902.98;;;0.46;78.59
48095;BME280;33874;52.070;-0.516;2023-03-08T06:58:15;98907.41;;;0.47;79.19
48095;BME280;33874;52.070;-0.516;2023-03-08T07:00:43;98907.66;;;0.48;78.95
48095;BME280;33874;52.070;-0.516;2023-03-08T07:03:11;98899.95;;;0.50;79.10
48095;BME280;33874;52.070;-0.516;2023-03-08T07:05:41;98898.21;;;0.50;79.06
48095;BME280;33874;52.070;-0.516;2023-03-08T07:08:09;98904.85;;;0.52;79.00
48095;BME280;33874;52.070;-0.516;2023-03-08T07:10:37;98896.59;;;0.53;78.99
48095;BME280;33874;52.070;-0.516;2023-03-08T07:13:05;98899.41;;;0.55;79.07
48095;BME280;33874;52.070;-0.516;2023-03-08T07:15:37;98906.25;;;0.58;79.13
48095;BME280;33874;52.070;-0.516;2023-03-08T07:18:05;98910.16;;;0.62;79.24
48095;BME280;33874;52.070;-0.516;2023-03-08T07:20:33;98908.47;;;0.63;79.03
48095;BME280;33874;52.070;-0.516;2023-03-08T07:23:02;98902.81;;;0.65;79.41
48095;BME280;33874;52.070;-0.516;2023-03-08T07:25:30;98900.63;;;0.67;79.42
48095;BME280;33874;52.070;-0.516;2023-03-08T07:27:58;98901.95;;;0.67;79.43
48095;BME280;33874;52.070;-0.516;2023-03-08T07:30:26;98904.31;;;0.68;79.43
48095;BME280;33874;52.070;-0.516;2023-03-08T07:32:54;98897.47;;;0.67;79.46
48095;BME280;33874;52.070;-0.516;2023-03-08T07:35:22;98891.17;;;0.68;79.55
48095;BME280;33874;52.070;-0.516;2023-03-08T07:37:50;98881.55;;;0.67;79.46
48095;BME280;33874;52.070;-0.516;2023-03-08T07:40:18;98884.93;;;0.68;79.42
48095;BME280;33874;52.070;-0.516;2023-03-08T07:42:46;98882.94;;;0.72;79.66
48095;BME280;33874;52.070;-0.516;2023-03-08T07:45:14;98887.12;;;0.76;79.63
48095;BME280;33874;52.070;-0.516;2023-03-08T07:47:41;98881.63;;;0.81;79.51
48095;BME280;33874;52.070;-0.516;2023-03-08T07:50:10;98883.69;;;0.85;79.49
48095;BME280;33874;52.070;-0.516;2023-03-08T07:52:38;98890.82;;;0.89;79.52
48095;BME280;33874;52.070;-0.516;2023-03-08T07:55:06;98894.90;;;0.92;79.27
48095;BME280;33874;52.070;-0.516;2023-03-08T07:57:35;98895.95;;;0.99;79.48
48095;BME280;33874;52.070;-0.516;2023-03-08T08:00:04;98882.33;;;1.06;79.63
48095;BME280;33874;52.070;-0.516;2023-03-08T08:02:35;98875.08;;;1.10;79.67
48095;BME280;33874;52.070;-0.516;2023-03-08T08:05:04;98876.52;;;1.12;79.46
48095;BME280;33874;52.070;-0.516;2023-03-08T08:07:32;98888.48;;;1.14;79.56
48095;BME280;33874;52.070;-0.516;2023-03-08T08:10:00;98905.38;;;1.17;79.22
48095;BME280;33874;52.070;-0.516;2023-03-08T08:12:27;98910.95;;;1.23;79.55
48095;BME280;33874;52.070;-0.516;2023-03-08T08:14:55;98911.41;;;1.28;79.69
48095;BME280;33874;52.070;-0.516;2023-03-08T08:17:24;98903.65;;;1.33;79.48
48095;BME280;33874;52.070;-0.516;2023-03-08T08:19:52;98892.56;;;1.35;79.23
48095;BME280;33874;52.070;-0.516;2023-03-08T08:22:20;98882.48;;;1.38;79.34
48095;BME280;33874;52.070;-0.516;2023-03-08T08:24:47;98872.27;;;1.38;78.83
48095;BME280;33874;52.070;-0.516;2023-03-08T08:27:15;98866.87;;;1.36;79.00
48095;BME280;33874;52.070;-0.516;2023-03-08T08:29:43;98871.84;;;1.39;79.11
48095;BME280;33874;52.070;-0.516;2023-03-08T08:32:16;98880.45;;;1.44;79.08
48095;BME280;33874;52.070;-0.516;2023-03-08T08:34:44;98882.65;;;1.45;78.99
48095;BME280;33874;52.070;-0.516;2023-03-08T08:37:11;98878.77;;;1.43;79.30
48095;BME280;33874;52.070;-0.516;2023-03-08T08:39:39;98881.89;;;1.45;78.97
48095;BME280;33874;52.070;-0.516;2023-03-08T08:42:07;98881.98;;;1.49;79.47
48095;BME280;33874;52.070;-0.516;2023-03-08T08:44:35;98888.80;;;1.50;79.02
48095;BME280;33874;52.070;-0.516;2023-03-08T08:47:03;98886.99;;;1.49;79.11
48095;BME280;33874;52.070;-0.516;2023-03-08T08:49:31;98893.00;;;1.52;79.21
48095;BME280;33874;52.070;-0.516;2023-03-08T08:51:59;98890.16;;;1.55;79.23
48095;BME280;33874;52.070;-0.516;2023-03-08T08:54:26;98897.23;;;1.55;78.96
48095;BME280;33874;52.070;-0.516;2023-03-08T08:56:55;98897.96;;;1.55;79.18
48095;BME280;33874;52.070;-0.516;2023-03-08T08:59:23;98895.09;;;1.56;79.22
48095;BME280;33874;52.070;-0.516;2023-03-08T09:01:51;98897.04;;;1.58;79.31
48095;BME280;33874;52.070;-0.516;2023-03-08T09:04:19;98897.35;;;1.58;79.20
48095;BME280;33874;52.070;-0.516;2023-03-08T09:06:47;98898.84;;;1.57;78.94
48095;BME280;33874;52.070;-0.516;2023-03-08T09:09:16;98901.84;;;1.56;79.02
48095;BME280;33874;52.070;-0.516;2023-03-08T09:11:44;98902.64;;;1.59;79.36
48095;BME280;33874;52.070;-0.516;2023-03-08T09:14:22;98902.16;;;1.61;79.11
48095;BME280;33874;52.070;-0.516;2023-03-08T09:16:50;98900.70;;;1.64;79.19
48095;BME280;33874;52.070;-0.516;2023-03-08T09:19:19;98893.77;;;1.67;79.40
48095;BME280;33874;52.070;-0.516;2023-03-08T09:21:47;98886.76;;;1.70;79.22
48095;BME280;33874;52.070;-0.516;2023-03-08T09:24:15;98872.59;;;1.76;79.40
48095;BME280;33874;52.070;-0.516;2023-03-08T09:26:43;98864.02;;;1.81;79.22
48095;BME280;33874;52.070;-0.516;2023-03-08T09:29:11;98842.95;;;1.87;79.20
48095;BME280;33874;52.070;-0.516;2023-03-08T09:31:39;98831.54;;;1.96;79.26
48095;BME280;33874;52.070;-0.516;2023-03-08T09:34:09;98832.04;;;2.02;78.96
48095;BME280;33874;52.070;-0.516;2023-03-08T09:36:38;98840.34;;;2.09;78.87
48095;BME280;33874;52.070;-0.516;2023-03-08T09:39:07;98849.56;;;2.15;78.79
48095;BME280;33874;52.070;-0.516;2023-03-08T09:46:45;98876.88;;;2.25;78.96
48095;BME280;33874;52.070;-0.516;2023-03-08T09:49:18;98878.17;;;2.23;78.97
48095;BME280;33874;52.070;-0.516;2023-03-08T09:51:49;98873.67;;;2.19;78.66
48095;BME280;33874;52.070;-0.516;2023-03-08T09:54:20;98869.84;;;2.13;78.73
48095;BME280;33874;52.070;-0.516;2023-03-08T09:56:51;98875.52;;;2.09;78.93
48095;BME280;33874;52.070;-0.516;2023-03-08T10:05:06;98873.29;;;2.09;78.81
48095;BME280;33874;52.070;-0.516;2023-03-08T10:10:23;98869.95;;;2.07;78.85
48095;BME280;33874;52.070;-0.516;2023-03-08T10:13:08;98867.44;;;2.08;78.63
48095;BME280;33874;52.070;-0.516;2023-03-08T10:15:45;98869.45;;;2.09;78.51
48095;BME280;33874;52.070;-0.516;2023-03-08T10:18:22;98869.89;;;2.12;78.58
48095;BME280;33874;52.070;-0.516;2023-03-08T10:20:57;98866.14;;;2.14;78.29
48095;BME280;33874;52.070;-0.516;2023-03-08T10:23:27;98864.27;;;2.17;78.25
48095;BME280;33874;52.070;-0.516;2023-03-08T10:25:55;98862.08;;;2.23;78.26
48095;BME280;33874;52.070;-0.516;2023-03-08T10:28:23;98861.45;;;2.29;78.22
48095;BME280;33874;52.070;-0.516;2023-03-08T10:31:01;98861.81;;;2.37;78.34
48095;BME280;33874;52.070;-0.516;2023-03-08T10:33:33;98864.20;;;2.44;78.15
48095;BME280;33874;52.070;-0.516;2023-03-08T10:39:08;98849.36;;;2.71;77.75
48095;BME280;33874;52.070;-0.516;2023-03-08T10:41:50;98841.96;;;2.82;77.65
48095;BME280;33874;52.070;-0.516;2023-03-08T10:47:23;98838.51;;;3.03;77.06
48095;BME280;33874;52.070;-0.516;2023-03-08T10:52:49;98830.63;;;3.16;76.85
48095;BME280;33874;52.070;-0.516;2023-03-08T10:55:19;98834.88;;;3.21;76.83
48095;BME280;33874;52.070;-0.516;2023-03-08T10:57:51;98831.94;;;3.25;76.71
48095;BME280;33874;52.070;-0.516;2023-03-08T11:03:00;98836.98;;;3.25;76.45
48095;BME280;33874;52.070;-0.516;2023-03-08T11:05:29;98840.83;;;3.23;76.54
48095;BME280;33874;52.070;-0.516;2023-03-08T11:07:58;98844.59;;;3.23;76.68
48095;BME280;33874;52.070;-0.516;2023-03-08T11:10:27;98845.91;;;3.20;76.41
48095;BME280;33874;52.070;-0.516;2023-03-08T11:18:41;98842.94;;;3.04;76.32
48095;BME280;33874;52.070;-0.516;2023-03-08T11:26:21;98853.67;;;2.96;76.65
48095;BME280;33874;52.070;-0.516;2023-03-08T11:29:05;98848.64;;;2.90;76.58
48095;BME280;33874;52.070;-0.516;2023-03-08T11:44:46;98843.90;;;2.78;77.14
48095;BME280;33874;52.070;-0.516;2023-03-08T11:57:36;98850.78;;;2.55;77.69
48095;BME280;33874;52.070;-0.516;2023-03-08T12:00:22;98844.85;;;2.56;77.90
48095;BME280;33874;52.070;-0.516;2023-03-08T12:02:51;98836.67;;;2.60;77.90
48095;BME280;33874;52.070;-0.516;2023-03-08T12:05:31;98832.92;;;2.66;78.22
48095;BME280;33874;52.070;-0.516;2023-03-08T12:13:05;98835.89;;;2.76;78.18
48095;BME280;33874;52.070;-0.516;2023-03-08T12:15:39;98839.21;;;2.74;78.43
48095;BME280;33874;52.070;-0.516;2023-03-08T12:21:21;98831.90;;;2.70;78.42
48095;BME280;33874;52.070;-0.516;2023-03-08T12:26:35;98830.29;;;2.64;78.85
48095;BME280;33874;52.070;-0.516;2023-03-08T12:29:12;98839.45;;;2.60;78.94
48095;BME280;33874;52.070;-0.516;2023-03-08T12:31:44;98836.48;;;2.54;78.90
48095;BME280;33874;52.070;-0.516;2023-03-08T12:34:21;98834.59;;;2.50;79.06
48095;BME280;33874;52.070;-0.516;2023-03-08T12:36:51;98829.55;;;2.46;78.92
48095;BME280;33874;52.070;-0.516;2023-03-08T12:39:26;98828.69;;;2.46;79.12
48095;BME280;33874;52.070;-0.516;2023-03-08T12:41:56;98835.68;;;2.43;78.94
48095;BME280;33874;52.070;-0.516;2023-03-08T12:44:25;98838.45;;;2.38;79.10
48095;BME280;33874;52.070;-0.516;2023-03-08T12:46:58;98839.13;;;2.34;79.27
48095;BME280;33874;52.070;-0.516;2023-03-08T12:49:38;98833.54;;;2.33;79.12
48095;BME280;33874;52.070;-0.516;2023-03-08T12:57:25;98812.70;;;2.47;79.13
48095;BME280;33874;52.070;-0.516;2023-03-08T12:59:58;98812.70;;;2.51;79.06
48095;BME280;33874;52.070;-0.516;2023-03-08T13:02:28;98813.80;;;2.60;79.28
48095;BME280;33874;52.070;-0.516;2023-03-08T13:05:12;98812.37;;;2.59;79.11
48095;BME280;33874;52.070;-0.516;2023-03-08T13:08:17;98821.11;;;2.53;78.95
48095;BME280;33874;52.070;-0.516;2023-03-08T13:10:40;98822.21;;;2.57;79.05
48095;BME280;33874;52.070;-0.516;2023-03-08T13:19:01;98819.81;;;2.84;78.86
48095;BME280;33874;52.070;-0.516;2023-03-08T13:21:30;98820.17;;;2.88;78.51
48095;BME280;33874;52.070;-0.516;2023-03-08T13:24:05;98811.79;;;2.91;78.33
48095;BME280;33874;52.070;-0.516;2023-03-08T13:26:40;98812.75;;;2.89;78.30
48095;BME280;33874;52.070;-0.516;2023-03-08T13:29:18;98813.85;;;2.89;78.13
48095;BME280;33874;52.070;-0.516;2023-03-08T13:31:46;98811.84;;;2.88;78.15
48095;BME280;33874;52.070;-0.516;2023-03-08T13:34:33;98811.41;;;2.93;78.25
48095;BME280;33874;52.070;-0.516;2023-03-08T13:37:02;98810.37;;;2.97;78.25
48095;BME280;33874;52.070;-0.516;2023-03-08T13:39:30;98802.60;;;3.05;78.32
48095;BME280;33874;52.070;-0.516;2023-03-08T13:42:10;98792.66;;;3.15;78.33
48095;BME280;33874;52.070;-0.516;2023-03-08T13:44:39;98791.38;;;3.28;78.08
48095;BME280;33874;52.070;-0.516;2023-03-08T13:47:14;98784.90;;;3.33;78.10
48095;BME280;33874;52.070;-0.516;2023-03-08T13:49:45;98772.59;;;3.41;78.02
48095;BME280;33874;52.070;-0.516;2023-03-08T13:52:20;98772.23;;;3.43;77.79
48095;BME280;33874;52.070;-0.516;2023-03-08T13:54:50;98770.83;;;3.41;77.74
48095;BME280;33874;52.070;-0.516;2023-03-08T13:57:28;98773.70;;;3.40;77.61
48095;BME280;33874;52.070;-0.516;2023-03-08T13:59:58;98767.85;;;3.37;77.47
48095;BME280;33874;52.070;-0.516;2023-03-08T14:02:27;98769.17;;;3.32;77.60
48095;BME280;33874;52.070;-0.516;2023-03-08T14:04:56;98774.91;;;3.24;77.78
48095;BME280;33874;52.070;-0.516;2023-03-08T14:07:27;98771.11;;;3.16;78.01
48095;BME280;33874;52.070;-0.516;2023-03-08T14:09:57;98769.55;;;3.10;78.02
48095;BME280;33874;52.070;-0.516;2023-03-08T14:12:28;98758.38;;;3.00;77.62
48095;BME280;33874;52.070;-0.516;2023-03-08T14:14:59;98752.48;;;2.96;77.71
48095;BME280;33874;52.070;-0.516;2023-03-08T14:17:28;98754.13;;;2.95;77.97
48095;BME280;33874;52.070;-0.516;2023-03-08T14:19:58;98759.79;;;2.90;77.91
48095;BME280;33874;52.070;-0.516;2023-03-08T14:22:27;98768.48;;;2.81;78.10
48095;BME280;33874;52.070;-0.516;2023-03-08T14:25:19;98766.26;;;2.73;78.11
48095;BME280;33874;52.070;-0.516;2023-03-08T14:27:47;98750.06;;;2.63;78.06
48095;BME280;33874;52.070;-0.516;2023-03-08T14:30:16;98752.59;;;2.52;78.30
48095;BME280;33874;52.070;-0.516;2023-03-08T14:35:39;98757.04;;;2.34;78.66
48095;BME280;33874;52.070;-0.516;2023-03-08T14:38:12;98756.78;;;2.32;79.03
48095;BME280;33874;52.070;-0.516;2023-03-08T14:40:45;98747.23;;;2.41;79.21
48095;BME280;33874;52.070;-0.516;2023-03-08T14:43:17;98747.17;;;2.58;79.50